sensor_id;sensor_type;location;lat;lon;timestamp;temperature;humidity
1337;DHT22;662;48.814;9.318;2023-07-09T00:01:51;26.40;44.60
1337;DHT22;662;48.814;9.318;2023-07-09T00:04:18;26.30;44.80
1337;DHT22;662;48.814;9.318;2023-07-09T00:06:44;26.30;45.00
1337;DHT22;662;48.814;9.318;2023-07-09T00:09:17;26.20;45.00
1337;DHT22;662;48.814;9.318;2023-07-09T00:11:43;26.20;45.20
1337;DHT22;662;48.814;9.318;2023-07-09T00:14:12;26.10;45.30
1337;DHT22;662;48.814;9.318;2023-07-09T00:16:42;26.10;45.50
1337;DHT22;662;48.814;9.318;2023-07-09T00:19:16;26.00;45.90
1337;DHT22;662;48.814;9.318;2023-07-09T00:21:43;26.00;45.50
1337;DHT22;662;48.814;9.318;2023-07-09T00:24:11;26.00;45.60
1337;DHT22;662;48.814;9.318;2023-07-09T00:26:38;25.90;45.70
1337;DHT22;662;48.814;9.318;2023-07-09T00:29:08;25.90;45.80
1337;DHT22;662;48.814;9.318;2023-07-09T00:31:34;25.80;45.80
1337;DHT22;662;48.814;9.318;2023-07-09T00:33:59;25.80;46.00
1337;DHT22;662;48.814;9.318;2023-07-09T00:36:27;25.80;46.00
1337;DHT22;662;48.814;9.318;2023-07-09T00:38:55;25.70;46.10
1337;DHT22;662;48.814;9.318;2023-07-09T00:41:34;25.70;46.20
1337;DHT22;662;48.814;9.318;2023-07-09T00:49:13;25.60;46.20
1337;DHT22;662;48.814;9.318;2023-07-09T00:51:44;25.70;46.30
1337;DHT22;662;48.814;9.318;2023-07-09T00:54:25;25.60;46.30
1337;DHT22;662;48.814;9.318;2023-07-09T00:57:03;25.60;46.40
1337;DHT22;662;48.814;9.318;2023-07-09T00:59:32;25.60;47.00
1337;DHT22;662;48.814;9.318;2023-07-09T01:01:58;25.60;46.60
1337;DHT22;662;48.814;9.318;2023-07-09T01:04:27;25.50;46.60
1337;DHT22;662;48.814;9.318;2023-07-09T01:06:55;25.50;46.60
1337;DHT22;662;48.814;9.318;2023-07-09T01:09:21;25.50;46.60
1337;DHT22;662;48.814;9.318;2023-07-09T01:11:47;25.50;46.60
1337;DHT22;662;48.814;9.318;2023-07-09T01:14:15;25.50;46.50
1337;DHT22;662;48.814;9.318;2023-07-09T01:17:03;25.50;46.40
1337;DHT22;662;48.814;9.318;2023-07-09T01:19:37;25.50;46.60
1337;DHT22;662;48.814;9.318;2023-07-09T01:22:09;25.40;46.70
1337;DHT22;662;48.814;9.318;2023-07-09T01:27:28;25.30;46.90
1337;DHT22;662;48.814;9.318;2023-07-09T01:29:56;25.20;47.50
1337;DHT22;662;48.814;9.318;2023-07-09T01:32:23;25.10;47.10
1337;DHT22;662;48.814;9.318;2023-07-09T01:34:51;25.10;47.30
1337;DHT22;662;48.814;9.318;2023-07-09T01:37:22;25.10;47.40
1337;DHT22;662;48.814;9.318;2023-07-09T01:39:49;25.00;47.40
1337;DHT22;662;48.814;9.318;2023-07-09T01:42:17;25.00;47.50
1337;DHT22;662;48.814;9.318;2023-07-09T01:44:44;25.00;47.60
1337;DHT22;662;48.814;9.318;2023-07-09T01:47:12;25.00;47.60
1337;DHT22;662;48.814;9.318;2023-07-09T01:49:37;25.00;47.50
1337;DHT22;662;48.814;9.318;2023-07-09T01:52:06;25.00;47.60
1337;DHT22;662;48.814;9.318;2023-07-09T01:54:34;25.00;47.60
1337;DHT22;662;48.814;9.318;2023-07-09T01:57:15;25.00;47.70
1337;DHT22;662;48.814;9.318;2023-07-09T01:59:41;25.00;47.80
1337;DHT22;662;48.814;9.318;2023-07-09T02:02:08;25.00;47.90
1337;DHT22;662;48.814;9.318;2023-07-09T02:04:34;24.90;47.80
1337;DHT22;662;48.814;9.318;2023-07-09T02:06:59;24.90;47.70
1337;DHT22;662;48.814;9.318;2023-07-09T02:09:25;24.90;47.80
1337;DHT22;662;48.814;9.318;2023-07-09T02:11:50;24.90;47.90
1337;DHT22;662;48.814;9.318;2023-07-09T02:14:16;24.90;47.90
1337;DHT22;662;48.814;9.318;2023-07-09T02:16:42;24.80;47.90
1337;DHT22;662;48.814;9.318;2023-07-09T02:19:08;24.80;48.00
1337;DHT22;662;48.814;9.318;2023-07-09T02:21:34;24.80;48.10
1337;DHT22;662;48.814;9.318;2023-07-09T02:24:00;24.70;48.00
1337;DHT22;662;48.814;9.318;2023-07-09T02:26:26;24.70;48.00
1337;DHT22;662;48.814;9.318;2023-07-09T02:28:51;24.70;48.10
1337;DHT22;662;48.814;9.318;2023-07-09T02:31:17;24.70;48.10
1337;DHT22;662;48.814;9.318;2023-07-09T02:33:42;24.70;48.10
1337;DHT22;662;48.814;9.318;2023-07-09T02:36:08;24.70;48.20
1337;DHT22;662;48.814;9.318;2023-07-09T02:38:33;24.60;48.20
1337;DHT22;662;48.814;9.318;2023-07-09T02:40:59;24.60;48.40
1337;DHT22;662;48.814;9.318;2023-07-09T02:43:25;24.60;48.30
1337;DHT22;662;48.814;9.318;2023-07-09T02:45:50;24.60;48.40
1337;DHT22;662;48.814;9.318;2023-07-09T02:48:16;24.60;48.40
1337;DHT22;662;48.814;9.318;2023-07-09T02:50:41;24.60;48.50
1337;DHT22;662;48.814;9.318;2023-07-09T02:53:07;24.60;48.50
1337;DHT22;662;48.814;9.318;2023-07-09T02:55:32;24.50;48.50
1337;DHT22;662;48.814;9.318;2023-07-09T02:58:00;24.40;48.60
1337;DHT22;662;48.814;9.318;2023-07-09T03:00:25;24.40;48.80
1337;DHT22;662;48.814;9.318;2023-07-09T03:02:51;24.40;49.00
1337;DHT22;662;48.814;9.318;2023-07-09T03:05:17;24.30;49.00
1337;DHT22;662;48.814;9.318;2023-07-09T03:07:42;24.40;49.00
1337;DHT22;662;48.814;9.318;2023-07-09T03:10:08;24.30;49.00
1337;DHT22;662;48.814;9.318;2023-07-09T03:12:34;24.30;49.10
1337;DHT22;662;48.814;9.318;2023-07-09T03:14:59;24.30;49.10
1337;DHT22;662;48.814;9.318;2023-07-09T03:17:25;24.20;49.20
1337;DHT22;662;48.814;9.318;2023-07-09T03:19:51;24.20;49.30
1337;DHT22;662;48.814;9.318;2023-07-09T03:22:16;24.20;49.40
1337;DHT22;662;48.814;9.318;2023-07-09T03:24:42;24.10;49.40
1337;DHT22;662;48.814;9.318;2023-07-09T03:27:08;24.10;49.40
1337;DHT22;662;48.814;9.318;2023-07-09T03:29:34;24.10;49.40
1337;DHT22;662;48.814;9.318;2023-07-09T03:32:00;24.00;49.40
1337;DHT22;662;48.814;9.318;2023-07-09T03:34:25;24.00;49.40
1337;DHT22;662;48.814;9.318;2023-07-09T03:36:51;24.00;49.40
1337;DHT22;662;48.814;9.318;2023-07-09T03:39:16;24.00;49.60
1337;DHT22;662;48.814;9.318;2023-07-09T03:41:45;24.00;49.60
1337;DHT22;662;48.814;9.318;2023-07-09T03:44:11;24.00;49.80
1337;DHT22;662;48.814;9.318;2023-07-09T03:46:36;23.90;49.70
1337;DHT22;662;48.814;9.318;2023-07-09T03:49:02;23.90;49.80
1337;DHT22;662;48.814;9.318;2023-07-09T03:51:27;23.90;49.90
1337;DHT22;662;48.814;9.318;2023-07-09T03:53:53;23.90;49.90
1337;DHT22;662;48.814;9.318;2023-07-09T03:56:19;23.80;50.00
1337;DHT22;662;48.814;9.318;2023-07-09T03:58:44;23.90;50.00
1337;DHT22;662;48.814;9.318;2023-07-09T04:01:10;23.90;50.20
1337;DHT22;662;48.814;9.318;2023-07-09T04:03:35;23.80;50.10
1337;DHT22;662;48.814;9.318;2023-07-09T04:06:01;23.80;50.20
1337;DHT22;662;48.814;9.318;2023-07-09T04:08:27;23.80;50.40
1337;DHT22;662;48.814;9.318;2023-07-09T04:10:54;23.80;50.50
1337;DHT22;662;48.814;9.318;2023-07-09T04:13:22;23.80;50.60
1337;DHT22;662;48.814;9.318;2023-07-09T04:15:48;23.70;50.70
1337;DHT22;662;48.814;9.318;2023-07-09T04:18:13;23.70;50.70
1337;DHT22;662;48.814;9.318;2023-07-09T04:20:39;23.70;50.90
1337;DHT22;662;48.814;9.318;2023-07-09T04:23:06;23.70;50.90
1337;DHT22;662;48.814;9.318;2023-07-09T04:25:32;23.70;50.90
1337;DHT22;662;48.814;9.318;2023-07-09T04:27:57;23.70;50.90
1337;DHT22;662;48.814;9.318;2023-07-09T04:30:23;23.70;51.00
1337;DHT22;662;48.814;9.318;2023-07-09T04:32:49;23.70;51.10
1337;DHT22;662;48.814;9.318;2023-07-09T04:35:15;23.60;51.00
1337;DHT22;662;48.814;9.318;2023-07-09T04:37:41;23.60;51.20
1337;DHT22;662;48.814;9.318;2023-07-09T04:40:08;23.70;51.30
1337;DHT22;662;48.814;9.318;2023-07-09T04:42:36;23.70;51.30
1337;DHT22;662;48.814;9.318;2023-07-09T04:45:03;23.70;51.20
1337;DHT22;662;48.814;9.318;2023-07-09T04:47:29;23.70;51.30
1337;DHT22;662;48.814;9.318;2023-07-09T04:49:54;23.70;51.30
1337;DHT22;662;48.814;9.318;2023-07-09T04:52:20;23.80;51.30
1337;DHT22;662;48.814;9.318;2023-07-09T04:54:47;23.80;51.40
1337;DHT22;662;48.814;9.318;2023-07-09T04:57:16;23.80;51.30
1337;DHT22;662;48.814;9.318;2023-07-09T04:59:41;23.80;51.30
1337;DHT22;662;48.814;9.318;2023-07-09T05:02:07;23.90;51.30
1337;DHT22;662;48.814;9.318;2023-07-09T05:04:33;23.90;51.40
1337;DHT22;662;48.814;9.318;2023-07-09T05:06:59;23.90;51.50
1337;DHT22;662;48.814;9.318;2023-07-09T05:09:25;23.90;51.60
1337;DHT22;662;48.814;9.318;2023-07-09T05:11:51;23.90;51.60
1337;DHT22;662;48.814;9.318;2023-07-09T05:14:17;23.90;51.70
1337;DHT22;662;48.814;9.318;2023-07-09T05:16:44;24.00;51.80
1337;DHT22;662;48.814;9.318;2023-07-09T05:19:11;24.00;51.80
1337;DHT22;662;48.814;9.318;2023-07-09T05:21:37;24.10;51.80
1337;DHT22;662;48.814;9.318;2023-07-09T05:24:04;24.10;51.70
1337;DHT22;662;48.814;9.318;2023-07-09T05:26:29;24.20;51.90
1337;DHT22;662;48.814;9.318;2023-07-09T05:28:55;24.20;51.90
1337;DHT22;662;48.814;9.318;2023-07-09T05:31:22;24.30;51.90
1337;DHT22;662;48.814;9.318;2023-07-09T05:33:48;24.30;51.70
1337;DHT22;662;48.814;9.318;2023-07-09T05:36:13;24.30;51.70
1337;DHT22;662;48.814;9.318;2023-07-09T05:38:44;24.40;51.70
1337;DHT22;662;48.814;9.318;2023-07-09T05:41:11;24.40;51.70
1337;DHT22;662;48.814;9.318;2023-07-09T05:43:36;24.50;51.90
1337;DHT22;662;48.814;9.318;2023-07-09T05:46:04;24.50;52.40
1337;DHT22;662;48.814;9.318;2023-07-09T05:48:30;24.60;52.80
1337;DHT22;662;48.814;9.318;2023-07-09T05:50:55;24.60;52.50
1337;DHT22;662;48.814;9.318;2023-07-09T05:53:22;24.60;52.40
1337;DHT22;662;48.814;9.318;2023-07-09T05:55:48;24.70;52.60
1337;DHT22;662;48.814;9.318;2023-07-09T05:58:13;24.70;52.30
1337;DHT22;662;48.814;9.318;2023-07-09T06:00:39;24.70;52.50
1337;DHT22;662;48.814;9.318;2023-07-09T06:03:06;24.80;52.50
1337;DHT22;662;48.814;9.318;2023-07-09T06:05:33;24.90;52.50
1337;DHT22;662;48.814;9.318;2023-07-09T06:07:59;24.90;52.60
1337;DHT22;662;48.814;9.318;2023-07-09T06:10:24;24.90;52.60
1337;DHT22;662;48.814;9.318;2023-07-09T06:12:50;25.00;52.50
1337;DHT22;662;48.814;9.318;2023-07-09T06:15:16;25.00;52.50
1337;DHT22;662;48.814;9.318;2023-07-09T06:17:41;25.10;52.40
1337;DHT22;662;48.814;9.318;2023-07-09T06:20:08;25.10;52.30
1337;DHT22;662;48.814;9.318;2023-07-09T06:22:34;25.20;52.30
1337;DHT22;662;48.814;9.318;2023-07-09T06:24:59;25.20;52.10
1337;DHT22;662;48.814;9.318;2023-07-09T06:27:26;25.30;52.00
1337;DHT22;662;48.814;9.318;2023-07-09T06:29:51;25.40;51.90
1337;DHT22;662;48.814;9.318;2023-07-09T06:32:17;25.50;51.70
1337;DHT22;662;48.814;9.318;2023-07-09T06:34:44;25.60;51.50
1337;DHT22;662;48.814;9.318;2023-07-09T06:37:10;25.70;51.60
1337;DHT22;662;48.814;9.318;2023-07-09T06:39:35;25.70;51.50
1337;DHT22;662;48.814;9.318;2023-07-09T06:42:01;25.80;51.20
1337;DHT22;662;48.814;9.318;2023-07-09T06:44:27;25.90;50.90
1337;DHT22;662;48.814;9.318;2023-07-09T06:46:53;26.00;50.70
1337;DHT22;662;48.814;9.318;2023-07-09T06:49:18;26.10;50.80
1337;DHT22;662;48.814;9.318;2023-07-09T06:51:45;26.20;50.80
1337;DHT22;662;48.814;9.318;2023-07-09T06:54:12;26.20;50.70
1337;DHT22;662;48.814;9.318;2023-07-09T06:56:38;26.30;50.60
1337;DHT22;662;48.814;9.318;2023-07-09T06:59:03;26.40;51.00
1337;DHT22;662;48.814;9.318;2023-07-09T07:01:29;26.50;50.40
1337;DHT22;662;48.814;9.318;2023-07-09T07:03:55;26.60;50.30
1337;DHT22;662;48.814;9.318;2023-07-09T07:06:20;26.70;50.20
1337;DHT22;662;48.814;9.318;2023-07-09T07:08:46;26.80;50.00
1337;DHT22;662;48.814;9.318;2023-07-09T07:11:12;26.90;49.70
1337;DHT22;662;48.814;9.318;2023-07-09T07:13:39;26.90;49.50
1337;DHT22;662;48.814;9.318;2023-07-09T07:16:06;27.00;49.30
1337;DHT22;662;48.814;9.318;2023-07-09T07:18:33;27.10;49.10
1337;DHT22;662;48.814;9.318;2023-07-09T07:21:02;27.20;49.00
1337;DHT22;662;48.814;9.318;2023-07-09T07:23:28;27.30;48.90
1337;DHT22;662;48.814;9.318;2023-07-09T07:25:54;27.40;48.70
1337;DHT22;662;48.814;9.318;2023-07-09T07:28:21;27.50;48.40
1337;DHT22;662;48.814;9.318;2023-07-09T07:30:46;27.50;48.20
1337;DHT22;662;48.814;9.318;2023-07-09T07:33:14;27.70;48.00
1337;DHT22;662;48.814;9.318;2023-07-09T07:35:41;27.80;47.90
1337;DHT22;662;48.814;9.318;2023-07-09T07:38:07;27.80;47.50
1337;DHT22;662;48.814;9.318;2023-07-09T07:40:33;27.90;47.20
1337;DHT22;662;48.814;9.318;2023-07-09T07:42:59;28.00;46.70
1337;DHT22;662;48.814;9.318;2023-07-09T07:45:24;28.00;46.50
1337;DHT22;662;48.814;9.318;2023-07-09T07:47:50;28.10;46.30
1337;DHT22;662;48.814;9.318;2023-07-09T07:50:17;28.20;46.10
1337;DHT22;662;48.814;9.318;2023-07-09T07:52:43;28.20;45.60
1337;DHT22;662;48.814;9.318;2023-07-09T07:55:09;28.30;45.30
1337;DHT22;662;48.814;9.318;2023-07-09T07:57:35;28.40;45.30
1337;DHT22;662;48.814;9.318;2023-07-09T08:00:02;28.50;45.10
1337;DHT22;662;48.814;9.318;2023-07-09T08:02:28;28.60;45.00
1337;DHT22;662;48.814;9.318;2023-07-09T08:04:54;28.60;45.00
1337;DHT22;662;48.814;9.318;2023-07-09T08:07:20;28.70;44.90
1337;DHT22;662;48.814;9.318;2023-07-09T08:09:46;28.80;44.70
1337;DHT22;662;48.814;9.318;2023-07-09T08:12:12;28.90;44.90
1337;DHT22;662;48.814;9.318;2023-07-09T08:14:40;29.00;44.80
1337;DHT22;662;48.814;9.318;2023-07-09T08:17:09;29.10;44.50
1337;DHT22;662;48.814;9.318;2023-07-09T08:19:49;29.20;44.10
1337;DHT22;662;48.814;9.318;2023-07-09T08:22:16;29.30;43.70
1337;DHT22;662;48.814;9.318;2023-07-09T08:24:42;29.40;43.70
1337;DHT22;662;48.814;9.318;2023-07-09T08:27:09;29.40;43.50
1337;DHT22;662;48.814;9.318;2023-07-09T08:29:35;29.50;43.40
1337;DHT22;662;48.814;9.318;2023-07-09T08:32:02;29.70;43.20
1337;DHT22;662;48.814;9.318;2023-07-09T08:34:28;29.70;43.40
1337;DHT22;662;48.814;9.318;2023-07-09T08:36:53;29.80;43.20
1337;DHT22;662;48.814;9.318;2023-07-09T08:39:21;29.90;42.80
1337;DHT22;662;48.814;9.318;2023-07-09T08:42:10;30.00;42.80
1337;DHT22;662;48.814;9.318;2023-07-09T08:50:13;30.20;42.10
1337;DHT22;662;48.814;9.318;2023-07-09T08:52:42;30.30;42.00
1337;DHT22;662;48.814;9.318;2023-07-09T08:55:09;30.40;41.80
1337;DHT22;662;48.814;9.318;2023-07-09T08:57:40;30.50;42.10
1337;DHT22;662;48.814;9.318;2023-07-09T09:00:18;30.60;41.80
1337;DHT22;662;48.814;9.318;2023-07-09T09:03:11;30.70;41.40
1337;DHT22;662;48.814;9.318;2023-07-09T09:05:44;30.80;41.20
1337;DHT22;662;48.814;9.318;2023-07-09T09:11:07;31.00;40.50
1337;DHT22;662;48.814;9.318;2023-07-09T09:13:35;31.10;40.40
1337;DHT22;662;48.814;9.318;2023-07-09T09:16:06;31.20;40.50
1337;DHT22;662;48.814;9.318;2023-07-09T09:18:41;31.30;40.30
1337;DHT22;662;48.814;9.318;2023-07-09T09:21:21;31.50;39.90
1337;DHT22;662;48.814;9.318;2023-07-09T09:23:52;31.60;39.30
1337;DHT22;662;48.814;9.318;2023-07-09T09:26:28;31.80;39.30
1337;DHT22;662;48.814;9.318;2023-07-09T09:28:57;31.90;38.60
1337;DHT22;662;48.814;9.318;2023-07-09T09:31:27;32.10;37.90
1337;DHT22;662;48.814;9.318;2023-07-09T09:33:53;32.20;37.60
1337;DHT22;662;48.814;9.318;2023-07-09T09:36:22;32.30;37.60
1337;DHT22;662;48.814;9.318;2023-07-09T09:38:48;32.50;37.90
1337;DHT22;662;48.814;9.318;2023-07-09T09:41:18;32.60;38.60
1337;DHT22;662;48.814;9.318;2023-07-09T09:43:45;32.80;37.30
1337;DHT22;662;48.814;9.318;2023-07-09T09:46:26;32.90;36.00
1337;DHT22;662;48.814;9.318;2023-07-09T09:49:00;33.10;34.60
1337;DHT22;662;48.814;9.318;2023-07-09T09:51:26;33.20;34.60
1337;DHT22;662;48.814;9.318;2023-07-09T09:54:00;33.30;33.30
1337;DHT22;662;48.814;9.318;2023-07-09T09:56:28;33.40;32.50
1337;DHT22;662;48.814;9.318;2023-07-09T09:58:56;33.80;32.50
1337;DHT22;662;48.814;9.318;2023-07-09T10:01:30;34.90;31.90
1337;DHT22;662;48.814;9.318;2023-07-09T10:03:59;36.00;30.00
1337;DHT22;662;48.814;9.318;2023-07-09T10:09:04;37.80;27.40
1337;DHT22;662;48.814;9.318;2023-07-09T10:19:44;40.70;24.60
1337;DHT22;662;48.814;9.318;2023-07-09T10:22:40;41.30;23.70
1337;DHT22;662;48.814;9.318;2023-07-09T10:25:19;41.70;22.50
1337;DHT22;662;48.814;9.318;2023-07-09T10:30:51;42.40;22.10
1337;DHT22;662;48.814;9.318;2023-07-09T10:33:35;42.90;22.10
1337;DHT22;662;48.814;9.318;2023-07-09T10:39:00;43.50;21.40
1337;DHT22;662;48.814;9.318;2023-07-09T10:41:26;43.70;20.80
1337;DHT22;662;48.814;9.318;2023-07-09T10:43:59;44.00;20.70
1337;DHT22;662;48.814;9.318;2023-07-09T10:46:29;44.20;20.80
1337;DHT22;662;48.814;9.318;2023-07-09T10:48:56;44.50;20.70
1337;DHT22;662;48.814;9.318;2023-07-09T10:51:28;44.80;20.50
1337;DHT22;662;48.814;9.318;2023-07-09T10:54:22;44.90;19.70
1337;DHT22;662;48.814;9.318;2023-07-09T10:56:59;44.90;19.70
1337;DHT22;662;48.814;9.318;2023-07-09T10:59:30;45.10;19.60
1337;DHT22;662;48.814;9.318;2023-07-09T11:02:16;45.20;19.70
1337;DHT22;662;48.814;9.318;2023-07-09T11:04:57;45.40;19.60
1337;DHT22;662;48.814;9.318;2023-07-09T11:07:37;45.60;19.50
1337;DHT22;662;48.814;9.318;2023-07-09T11:10:24;45.80;19.50
1337;DHT22;662;48.814;9.318;2023-07-09T11:15:39;46.20;18.90
1337;DHT22;662;48.814;9.318;2023-07-09T11:18:07;46.40;18.90
1337;DHT22;662;48.814;9.318;2023-07-09T11:20:42;46.40;18.00
1337;DHT22;662;48.814;9.318;2023-07-09T11:23:23;46.40;16.20
1337;DHT22;662;48.814;9.318;2023-07-09T11:26:01;46.40;17.00
1337;DHT22;662;48.814;9.318;2023-07-09T11:28:36;46.60;17.60
1337;DHT22;662;48.814;9.318;2023-07-09T11:31:07;46.70;18.40
1337;DHT22;662;48.814;9.318;2023-07-09T11:33:33;46.80;18.10
1337;DHT22;662;48.814;9.318;2023-07-09T11:36:13;46.70;18.00
1337;DHT22;662;48.814;9.318;2023-07-09T11:38:45;46.80;18.50
1337;DHT22;662;48.814;9.318;2023-07-09T11:44:16;47.00;18.40
1337;DHT22;662;48.814;9.318;2023-07-09T11:49:24;47.50;17.80
1337;DHT22;662;48.814;9.318;2023-07-09T11:51:54;47.70;17.20
1337;DHT22;662;48.814;9.318;2023-07-09T11:54:20;47.70;17.00
1337;DHT22;662;48.814;9.318;2023-07-09T11:56:57;47.50;17.00
1337;DHT22;662;48.814;9.318;2023-07-09T11:59:23;47.30;16.30
1337;DHT22;662;48.814;9.318;2023-07-09T12:01:51;47.00;16.30
1337;DHT22;662;48.814;9.318;2023-07-09T12:04:32;46.80;16.50
1337;DHT22;662;48.814;9.318;2023-07-09T12:07:00;46.80;17.60
1337;DHT22;662;48.814;9.318;2023-07-09T12:09:33;47.00;17.50
1337;DHT22;662;48.814;9.318;2023-07-09T12:12:02;47.10;17.10
1337;DHT22;662;48.814;9.318;2023-07-09T12:14:28;47.20;17.20
1337;DHT22;662;48.814;9.318;2023-07-09T12:16:54;47.10;16.40
1337;DHT22;662;48.814;9.318;2023-07-09T12:19:23;47.00;17.00
1337;DHT22;662;48.814;9.318;2023-07-09T12:21:53;47.00;16.70
1337;DHT22;662;48.814;9.318;2023-07-09T12:24:24;47.00;16.60
1337;DHT22;662;48.814;9.318;2023-07-09T12:27:02;47.20;17.20
1337;DHT22;662;48.814;9.318;2023-07-09T12:29:34;47.30;16.80
1337;DHT22;662;48.814;9.318;2023-07-09T12:32:11;47.20;16.80
1337;DHT22;662;48.814;9.318;2023-07-09T12:34:37;47.00;17.60
1337;DHT22;662;48.814;9.318;2023-07-09T12:37:03;47.10;17.10
1337;DHT22;662;48.814;9.318;2023-07-09T12:39:31;47.30;17.40
1337;DHT22;662;48.814;9.318;2023-07-09T12:42:02;47.60;17.70
1337;DHT22;662;48.814;9.318;2023-07-09T12:44:33;47.90;17.20
1337;DHT22;662;48.814;9.318;2023-07-09T12:47:01;48.00;17.10
1337;DHT22;662;48.814;9.318;2023-07-09T12:49:29;47.50;17.20
1337;DHT22;662;48.814;9.318;2023-07-09T12:52:00;47.00;17.90
1337;DHT22;662;48.814;9.318;2023-07-09T12:54:29;46.90;18.50
1337;DHT22;662;48.814;9.318;2023-07-09T12:56:56;47.10;17.90
1337;DHT22;662;48.814;9.318;2023-07-09T12:59:26;47.30;17.70
1337;DHT22;662;48.814;9.318;2023-07-09T13:02:00;47.60;17.50
1337;DHT22;662;48.814;9.318;2023-07-09T13:04:29;47.90;17.40
1337;DHT22;662;48.814;9.318;2023-07-09T13:06:56;48.00;17.10
1337;DHT22;662;48.814;9.318;2023-07-09T13:09:25;48.30;17.00
1337;DHT22;662;48.814;9.318;2023-07-09T13:11:51;48.50;16.40
1337;DHT22;662;48.814;9.318;2023-07-09T13:14:20;48.30;16.40
1337;DHT22;662;48.814;9.318;2023-07-09T13:16:46;48.20;16.20
1337;DHT22;662;48.814;9.318;2023-07-09T13:19:12;48.10;16.60
1337;DHT22;662;48.814;9.318;2023-07-09T13:21:39;48.20;16.70
1337;DHT22;662;48.814;9.318;2023-07-09T13:24:25;48.20;16.70
1337;DHT22;662;48.814;9.318;2023-07-09T13:26:53;48.40;16.80
1337;DHT22;662;48.814;9.318;2023-07-09T13:29:19;48.50;16.30
1337;DHT22;662;48.814;9.318;2023-07-09T13:31:46;48.20;15.50
1337;DHT22;662;48.814;9.318;2023-07-09T13:34:22;47.80;15.50
1337;DHT22;662;48.814;9.318;2023-07-09T13:36:48;47.50;15.80
1337;DHT22;662;48.814;9.318;2023-07-09T13:39:15;47.40;16.10
1337;DHT22;662;48.814;9.318;2023-07-09T13:41:45;47.30;16.40
1337;DHT22;662;48.814;9.318;2023-07-09T13:44:14;47.20;16.30
1337;DHT22;662;48.814;9.318;2023-07-09T13:46:40;47.20;16.80
1337;DHT22;662;48.814;9.318;2023-07-09T13:49:15;47.30;17.10
1337;DHT22;662;48.814;9.318;2023-07-09T13:51:45;47.20;16.20
1337;DHT22;662;48.814;9.318;2023-07-09T13:56:43;47.10;15.60
1337;DHT22;662;48.814;9.318;2023-07-09T13:59:20;47.00;15.30
1337;DHT22;662;48.814;9.318;2023-07-09T14:01:48;46.90;15.80
1337;DHT22;662;48.814;9.318;2023-07-09T14:04:16;46.70;15.80
1337;DHT22;662;48.814;9.318;2023-07-09T14:06:43;46.70;15.30
1337;DHT22;662;48.814;9.318;2023-07-09T14:09:12;46.50;15.00
1337;DHT22;662;48.814;9.318;2023-07-09T14:11:47;46.30;15.40
1337;DHT22;662;48.814;9.318;2023-07-09T14:14:27;46.40;16.10
1337;DHT22;662;48.814;9.318;2023-07-09T14:16:56;46.30;15.50
1337;DHT22;662;48.814;9.318;2023-07-09T14:19:23;46.40;15.90
1337;DHT22;662;48.814;9.318;2023-07-09T14:21:50;46.50;15.90
1337;DHT22;662;48.814;9.318;2023-07-09T14:24:24;46.30;15.50
1337;DHT22;662;48.814;9.318;2023-07-09T14:26:52;46.00;15.30
1337;DHT22;662;48.814;9.318;2023-07-09T14:29:18;45.70;15.70
1337;DHT22;662;48.814;9.318;2023-07-09T14:31:45;45.70;16.00
1337;DHT22;662;48.814;9.318;2023-07-09T14:34:27;45.70;15.60
1337;DHT22;662;48.814;9.318;2023-07-09T14:36:56;45.40;15.90
1337;DHT22;662;48.814;9.318;2023-07-09T14:39:22;45.00;15.20
1337;DHT22;662;48.814;9.318;2023-07-09T14:41:48;44.60;16.00
1337;DHT22;662;48.814;9.318;2023-07-09T14:44:25;44.40;16.60
1337;DHT22;662;48.814;9.318;2023-07-09T14:46:53;44.40;17.10
1337;DHT22;662;48.814;9.318;2023-07-09T14:49:19;44.40;17.50
1337;DHT22;662;48.814;9.318;2023-07-09T14:51:45;44.50;17.70
1337;DHT22;662;48.814;9.318;2023-07-09T14:54:25;44.70;17.60
1337;DHT22;662;48.814;9.318;2023-07-09T14:56:52;44.70;18.00
1337;DHT22;662;48.814;9.318;2023-07-09T14:59:19;44.70;17.50
1337;DHT22;662;48.814;9.318;2023-07-09T15:01:45;44.70;17.40
1337;DHT22;662;48.814;9.318;2023-07-09T15:04:31;44.60;17.60
1337;DHT22;662;48.814;9.318;2023-07-09T15:06:57;44.60;17.90
1337;DHT22;662;48.814;9.318;2023-07-09T15:09:25;44.50;17.80
1337;DHT22;662;48.814;9.318;2023-07-09T15:11:54;44.30;17.60
1337;DHT22;662;48.814;9.318;2023-07-09T15:14:20;44.00;18.00
1337;DHT22;662;48.814;9.318;2023-07-09T15:16:47;43.70;18.80
1337;DHT22;662;48.814;9.318;2023-07-09T15:19:18;43.50;19.40
1337;DHT22;662;48.814;9.318;2023-07-09T15:21:45;43.20;19.50
1337;DHT22;662;48.814;9.318;2023-07-09T15:26:47;42.70;20.30
1337;DHT22;662;48.814;9.318;2023-07-09T15:29:14;42.30;20.30
1337;DHT22;662;48.814;9.318;2023-07-09T15:31:41;41.80;19.90
1337;DHT22;662;48.814;9.318;2023-07-09T15:34:06;41.20;20.30
1337;DHT22;662;48.814;9.318;2023-07-09T15:36:32;40.90;20.70
1337;DHT22;662;48.814;9.318;2023-07-09T15:38:58;40.60;21.00
1337;DHT22;662;48.814;9.318;2023-07-09T15:41:24;40.40;21.60
1337;DHT22;662;48.814;9.318;2023-07-09T15:43:49;40.10;21.60
1337;DHT22;662;48.814;9.318;2023-07-09T15:46:18;39.90;21.50
1337;DHT22;662;48.814;9.318;2023-07-09T15:48:45;39.60;21.60
1337;DHT22;662;48.814;9.318;2023-07-09T15:51:11;39.40;21.90
1337;DHT22;662;48.814;9.318;2023-07-09T15:53:38;39.20;21.90
1337;DHT22;662;48.814;9.318;2023-07-09T15:56:28;39.00;22.20
1337;DHT22;662;48.814;9.318;2023-07-09T15:58:56;38.80;22.50
1337;DHT22;662;48.814;9.318;2023-07-09T16:01:22;38.70;22.40
1337;DHT22;662;48.814;9.318;2023-07-09T16:03:50;38.60;22.30
1337;DHT22;662;48.814;9.318;2023-07-09T16:06:17;38.60;21.90
1337;DHT22;662;48.814;9.318;2023-07-09T16:08:43;38.50;21.80
1337;DHT22;662;48.814;9.318;2023-07-09T16:11:16;38.50;22.10
1337;DHT22;662;48.814;9.318;2023-07-09T16:13:42;38.40;22.60
1337;DHT22;662;48.814;9.318;2023-07-09T16:16:26;38.40;22.90
1337;DHT22;662;48.814;9.318;2023-07-09T16:18:52;38.30;22.60
1337;DHT22;662;48.814;9.318;2023-07-09T16:21:30;38.10;22.30
1337;DHT22;662;48.814;9.318;2023-07-09T16:23:58;38.00;22.30
1337;DHT22;662;48.814;9.318;2023-07-09T16:26:25;37.90;22.50
1337;DHT22;662;48.814;9.318;2023-07-09T16:28:51;37.70;22.40
1337;DHT22;662;48.814;9.318;2023-07-09T16:31:17;37.70;22.70
1337;DHT22;662;48.814;9.318;2023-07-09T16:33:42;37.50;22.20
1337;DHT22;662;48.814;9.318;2023-07-09T16:36:13;37.40;22.30
1337;DHT22;662;48.814;9.318;2023-07-09T16:38:39;37.30;22.30
1337;DHT22;662;48.814;9.318;2023-07-09T16:41:05;37.30;23.00
1337;DHT22;662;48.814;9.318;2023-07-09T16:43:31;37.20;23.70
1337;DHT22;662;48.814;9.318;2023-07-09T16:45:56;37.20;22.70
1337;DHT22;662;48.814;9.318;2023-07-09T16:48:23;37.10;22.50
1337;DHT22;662;48.814;9.318;2023-07-09T16:50:51;37.10;22.60
1337;DHT22;662;48.814;9.318;2023-07-09T16:53:19;37.00;22.70
1337;DHT22;662;48.814;9.318;2023-07-09T16:55:45;36.90;22.60
1337;DHT22;662;48.814;9.318;2023-07-09T16:58:31;36.80;22.60
1337;DHT22;662;48.814;9.318;2023-07-09T17:00:58;36.80;22.80
1337;DHT22;662;48.814;9.318;2023-07-09T17:03:24;36.70;22.80
1337;DHT22;662;48.814;9.318;2023-07-09T17:05:49;36.70;23.10
1337;DHT22;662;48.814;9.318;2023-07-09T17:08:15;36.60;22.90
1337;DHT22;662;48.814;9.318;2023-07-09T17:10:41;36.60;23.00
1337;DHT22;662;48.814;9.318;2023-07-09T17:13:21;36.60;23.40